Time,TemperatureF,DewpointF,PressureIn,WindDirection,WindDirectionDegrees,WindSpeedMPH,WindSpeedGustMPH,Humidity,HourlyPrecipIn,Conditions,Clouds,dailyrainin,SolarRadiationWatts/m^2,SoftwareType,DateUTC
2013-04-15 00:08:00,51.6,18.9,29.37,North,-999,-999.0,-999.0,9,0.00,,,-99.99,0.0,Linux-Irox,2013-04-15 07:08:00,
2013-04-15 00:18:00,51.4,18.7,29.38,North,-999,-999.0,-999.0,9,0.00,,,-99.99,0.0,Linux-Irox,2013-04-15 07:18:00,
2013-04-15 00:28:00,50.9,18.1,29.38,North,-999,-999.0,-999.0,9,0.00,,,-99.99,0.0,Linux-Irox,2013-04-15 07:28:00,
2013-04-15 00:38:00,50.5,17.8,29.38,North,-999,-999.0,-999.0,9,0.00,,,-99.99,0.0,Linux-Irox,2013-04-15 07:38:00,
2013-04-15 00:48:00,50.2,17.4,29.38,North,-999,-999.0,-999.0,9,0.00,,,-99.99,0.0,Linux-Irox,2013-04-15 07:48:00,
2013-04-15 00:58:00,50.0,17.2,29.39,North,-999,-999.0,-999.0,9,0.00,,,-99.99,0.0,Linux-Irox,2013-04-15 07:58:00,
2013-04-15 01:08:00,49.8,18.1,29.39,North,-999,-999.0,-999.0,12,0.00,,,-99.99,0.0,Linux-Irox,2013-04-15 08:08:00,
2013-04-15 01:18:00,49.8,18.1,29.40,North,-999,-999.0,-999.0,12,0.00,,,-99.99,0.0,Linux-Irox,2013-04-15 08:18:00,
2013-04-15 01:28:00,49.8,18.1,29.40,North,-999,-999.0,-999.0,12,0.00,,,-99.99,0.0,Linux-Irox,2013-04-15 08:28:00,
2013-04-15 01:38:00,49.8,18.1,29.40,North,-999,-999.0,-999.0,12,0.00,,,-99.99,0.0,Linux-Irox,2013-04-15 08:38:00,
2013-04-15 01:48:00,49.6,18.0,29.40,North,-999,-999.0,-999.0,12,0.00,,,-99.99,0.0,Linux-Irox,2013-04-15 08:48:00,
2013-04-15 01:58:00,49.5,17.8,29.39,North,-999,-999.0,-999.0,12,0.00,,,-99.99,0.0,Linux-Irox,2013-04-15 08:58:00,
2013-04-15 02:08:00,49.3,17.6,29.39,North,-999,-999.0,-999.0,12,0.00,,,-99.99,0.0,Linux-Irox,2013-04-15 09:08:00,
2013-04-15 02:18:00,49.1,17.4,29.39,North,-999,-999.0,-999.0,12,0.00,,,-99.99,0.0,Linux-Irox,2013-04-15 09:18:00,
2013-04-15 02:28:00,49.1,18.1,29.39,North,-999,-999.0,-999.0,14,0.00,,,-99.99,0.0,Linux-Irox,2013-04-15 09:28:00,
2013-04-15 02:38:00,49.1,18.1,29.40,North,-999,-999.0,-999.0,14,0.00,,,-99.99,0.0,Linux-Irox,2013-04-15 09:38:00,
2013-04-15 02:48:00,49.1,18.1,29.40,North,-999,-999.0,-999.0,14,0.00,,,-99.99,0.0,Linux-Irox,2013-04-15 09:48:00,
2013-04-15 02:58:00,49.1,18.1,29.40,North,-999,-999.0,-999.0,14,0.00,,,-99.99,0.0,Linux-Irox,2013-04-15 09:58:00,
2013-04-15 03:08:00,49.1,18.9,29.40,North,-999,-999.0,-999.0,16,0.00,,,-99.99,0.0,Linux-Irox,2013-04-15 10:08:00,
2013-04-15 03:18:00,49.1,18.9,29.40,North,-999,-999.0,-999.0,16,0.00,,,-99.99,0.0,Linux-Irox,2013-04-15 10:18:00,
2013-04-15 03:28:00,48.9,19.8,29.40,North,-999,-999.0,-999.0,19,0.00,,,-99.99,0.0,Linux-Irox,2013-04-15 10:28:00,
2013-04-15 03:38:00,49.1,19.9,29.40,North,-999,-999.0,-999.0,19,0.00,,,-99.99,0.0,Linux-Irox,2013-04-15 10:38:00,
2013-04-15 03:48:00,49.1,19.9,29.40,North,-999,-999.0,-999.0,19,0.00,,,-99.99,0.0,Linux-Irox,2013-04-15 10:48:00,
2013-04-15 03:58:00,49.1,19.9,29.40,North,-999,-999.0,-999.0,19,0.00,,,-99.99,0.0,Linux-Irox,2013-04-15 10:58:00,
2013-04-15 04:08:00,48.9,20.1,29.40,North,-999,-999.0,-999.0,20,0.00,,,-99.99,0.0,Linux-Irox,2013-04-15 11:08:00,
2013-04-15 04:18:00,48.9,20.1,29.41,North,-999,-999.0,-999.0,20,0.00,,,-99.99,0.0,Linux-Irox,2013-04-15 11:18:00,
2013-04-15 04:28:00,48.9,20.1,29.41,North,-999,-999.0,-999.0,20,0.00,,,-99.99,0.0,Linux-Irox,2013-04-15 11:28:00,
2013-04-15 04:38:00,48.9,20.1,29.40,North,-999,-999.0,-999.0,20,0.00,,,-99.99,0.0,Linux-Irox,2013-04-15 11:38:00,
2013-04-15 04:48:00,48.9,20.1,29.40,North,-999,-999.0,-999.0,20,0.00,,,-99.99,0.0,Linux-Irox,2013-04-15 11:48:00,
2013-04-15 04:58:00,48.9,20.1,29.41,North,-999,-999.0,-999.0,20,0.00,,,-99.99,0.0,Linux-Irox,2013-04-15 11:58:00,
2013-04-15 05:08:00,48.6,19.8,29.41,North,-999,-999.0,-999.0,20,0.00,,,-99.99,0.0,Linux-Irox,2013-04-15 12:08:00,
2013-04-15 05:18:00,48.6,19.8,29.41,North,-999,-999.0,-999.0,20,0.00,,,-99.99,0.0,Linux-Irox,2013-04-15 12:18:00,
2013-04-15 05:28:00,48.9,20.1,29.41,North,-999,-999.0,-999.0,20,0.00,,,-99.99,0.0,Linux-Irox,2013-04-15 12:28:00,
2013-04-15 05:38:00,48.6,20.1,29.41,North,-999,-999.0,-999.0,21,0.00,,,-99.99,0.0,Linux-Irox,2013-04-15 12:38:00,
2013-04-15 05:48:00,48.6,20.1,29.41,North,-999,-999.0,-999.0,21,0.00,,,-99.99,0.0,Linux-Irox,2013-04-15 12:48:00,
2013-04-15 05:58:00,48.4,19.9,29.41,North,-999,-999.0,-999.0,21,0.00,,,-99.99,0.0,Linux-Irox,2013-04-15 12:58:00,
2013-04-15 06:08:00,47.8,19.4,29.41,North,-999,-999.0,-999.0,21,0.00,,,-99.99,0.0,Linux-Irox,2013-04-15 13:08:00,
2013-04-15 06:16:00,47.7,19.2,29.41,North,-999,-999.0,-999.0,21,0.00,,,-99.99,0.0,Linux-Irox,2013-04-15 13:16:00,
2013-04-15 06:18:00,47.7,19.2,29.42,North,-999,-999.0,-999.0,21,0.00,,,-99.99,0.0,Linux-Irox,2013-04-15 13:18:00,
2013-04-15 06:28:00,47.7,19.6,29.42,North,-999,-999.0,-999.0,22,0.00,,,-99.99,0.0,Linux-Irox,2013-04-15 13:28:00,
2013-04-15 06:31:00,47.7,19.6,29.42,North,-999,-999.0,-999.0,22,0.00,,,-99.99,0.0,Linux-Irox,2013-04-15 13:31:00,
2013-04-15 06:38:00,48.0,19.9,29.41,North,-999,-999.0,-999.0,22,0.00,,,-99.99,0.0,Linux-Irox,2013-04-15 13:38:00,
2013-04-15 06:46:00,48.4,20.3,29.41,North,-999,-999.0,-999.0,22,0.00,,,-99.99,0.0,Linux-Irox,2013-04-15 13:46:00,
2013-04-15 06:48:00,48.4,20.3,29.41,North,-999,-999.0,-999.0,22,0.00,,,-99.99,0.0,Linux-Irox,2013-04-15 13:48:00,
2013-04-15 06:58:00,48.4,20.3,29.42,North,-999,-999.0,-999.0,22,0.00,,,-99.99,0.0,Linux-Irox,2013-04-15 13:58:00,
2013-04-15 07:02:00,48.6,20.5,29.42,North,-999,-999.0,-999.0,22,0.00,,,-99.99,0.0,Linux-Irox,2013-04-15 14:02:00,
2013-04-15 07:08:00,48.6,20.5,29.42,North,-999,-999.0,-999.0,22,0.00,,,-99.99,0.0,Linux-Irox,2013-04-15 14:08:00,
2013-04-15 07:16:00,48.7,20.7,29.42,North,-999,-999.0,-999.0,22,0.00,,,-99.99,0.0,Linux-Irox,2013-04-15 14:16:00,
2013-04-15 07:18:00,48.7,20.7,29.43,North,-999,-999.0,-999.0,22,0.00,,,-99.99,0.0,Linux-Irox,2013-04-15 14:18:00,
2013-04-15 07:28:00,49.3,21.2,29.43,North,-999,-999.0,-999.0,22,0.00,,,-99.99,0.0,Linux-Irox,2013-04-15 14:28:00,
2013-04-15 07:31:00,49.5,21.0,29.43,North,-999,-999.0,-999.0,21,0.00,,,-99.99,0.0,Linux-Irox,2013-04-15 14:31:00,
2013-04-15 07:38:00,49.6,21.2,29.43,North,-999,-999.0,-999.0,21,0.00,,,-99.99,0.0,Linux-Irox,2013-04-15 14:38:00,
2013-04-15 07:46:00,49.6,21.2,29.43,North,-999,-999.0,-999.0,21,0.00,,,-99.99,0.0,Linux-Irox,2013-04-15 14:46:00,
2013-04-15 07:48:00,49.6,21.2,29.43,North,-999,-999.0,-999.0,21,0.00,,,-99.99,0.0,Linux-Irox,2013-04-15 14:48:00,
2013-04-15 07:58:00,50.0,21.2,29.43,North,-999,-999.0,-999.0,20,0.00,,,-99.99,0.0,Linux-Irox,2013-04-15 14:58:00,
2013-04-15 08:01:00,50.0,21.2,29.43,North,-999,-999.0,-999.0,20,0.00,,,-99.99,0.0,Linux-Irox,2013-04-15 15:01:00,
2013-04-15 08:08:00,50.0,21.2,29.43,North,-999,-999.0,-999.0,20,0.00,,,-99.99,0.0,Linux-Irox,2013-04-15 15:08:00,
2013-04-15 08:16:00,50.4,21.6,29.43,North,-999,-999.0,-999.0,20,0.00,,,-99.99,0.0,Linux-Irox,2013-04-15 15:16:00,
2013-04-15 08:18:00,50.4,21.6,29.43,North,-999,-999.0,-999.0,20,0.00,,,-99.99,0.0,Linux-Irox,2013-04-15 15:18:00,
2013-04-15 08:28:00,51.1,21.6,29.43,North,-999,-999.0,-999.0,18,0.00,,,-99.99,0.0,Linux-Irox,2013-04-15 15:28:00,
2013-04-15 08:31:00,51.1,21.6,29.43,North,-999,-999.0,-999.0,18,0.00,,,-99.99,0.0,Linux-Irox,2013-04-15 15:31:00,
2013-04-15 08:38:00,51.3,21.7,29.43,North,-999,-999.0,-999.0,18,0.00,,,-99.99,0.0,Linux-Irox,2013-04-15 15:38:00,
2013-04-15 08:46:00,51.1,21.6,29.43,North,-999,-999.0,-999.0,18,0.00,,,-99.99,0.0,Linux-Irox,2013-04-15 15:46:00,
2013-04-15 08:48:00,51.1,21.6,29.43,North,-999,-999.0,-999.0,18,0.00,,,-99.99,0.0,Linux-Irox,2013-04-15 15:48:00,
2013-04-15 08:58:00,50.7,21.2,29.43,North,-999,-999.0,-999.0,18,0.00,,,-99.99,0.0,Linux-Irox,2013-04-15 15:58:00,
2013-04-15 09:02:00,50.5,21.0,29.43,North,-999,-999.0,-999.0,18,0.00,,,-99.99,0.0,Linux-Irox,2013-04-15 16:02:00,
2013-04-15 09:08:00,50.5,19.9,29.43,North,-999,-999.0,-999.0,15,0.00,,,-99.99,0.0,Linux-Irox,2013-04-15 16:08:00,
2013-04-15 09:16:00,51.8,20.8,29.43,North,-999,-999.0,-999.0,14,0.00,,,-99.99,0.0,Linux-Irox,2013-04-15 16:16:00,
2013-04-15 09:18:00,51.8,20.8,29.42,North,-999,-999.0,-999.0,14,0.00,,,-99.99,0.0,Linux-Irox,2013-04-15 16:18:00,
2013-04-15 09:28:00,51.8,20.8,29.42,North,-999,-999.0,-999.0,14,0.00,,,-99.99,0.0,Linux-Irox,2013-04-15 16:28:00,
2013-04-15 09:31:00,52.2,21.2,29.42,North,-999,-999.0,-999.0,14,0.00,,,-99.99,0.0,Linux-Irox,2013-04-15 16:31:00,
2013-04-15 09:38:00,53.6,21.6,29.41,North,-999,-999.0,-999.0,11,0.00,,,-99.99,0.0,Linux-Irox,2013-04-15 16:38:00,
2013-04-15 09:46:00,55.4,23.7,29.41,North,-999,-999.0,-999.0,12,0.00,,,-99.99,0.0,Linux-Irox,2013-04-15 16:46:00,
2013-04-15 09:48:00,55.8,23.7,29.41,North,-999,-999.0,-999.0,11,0.00,,,-99.99,0.0,Linux-Irox,2013-04-15 16:48:00,
2013-04-15 09:58:00,55.4,23.4,29.42,North,-999,-999.0,-999.0,11,0.00,,,-99.99,0.0,Linux-Irox,2013-04-15 16:58:00,
2013-04-15 10:01:00,54.1,21.7,29.42,North,-999,-999.0,-999.0,10,0.00,,,-99.99,0.0,Linux-Irox,2013-04-15 17:01:00,
2013-04-15 10:08:00,51.6,19.6,29.42,North,-999,-999.0,-999.0,11,0.00,,,-99.99,0.0,Linux-Irox,2013-04-15 17:08:00,
2013-04-15 10:17:00,48.9,17.2,29.42,North,-999,-999.0,-999.0,12,0.00,,,-99.99,0.0,Linux-Irox,2013-04-15 17:17:00,
2013-04-15 10:18:00,48.9,17.2,29.43,North,-999,-999.0,-999.0,12,0.00,,,-99.99,0.0,Linux-Irox,2013-04-15 17:18:00,
2013-04-15 10:28:00,48.0,17.1,29.43,North,-999,-999.0,-999.0,14,0.03,,,-99.99,0.0,Linux-Irox,2013-04-15 17:28:00,
2013-04-15 10:31:00,48.0,17.1,29.43,North,-999,-999.0,-999.0,14,0.03,,,-99.99,0.0,Linux-Irox,2013-04-15 17:31:00,
2013-04-15 10:38:00,48.6,18.3,29.44,North,-999,-999.0,-999.0,16,0.03,,,-99.99,0.0,Linux-Irox,2013-04-15 17:38:00,
2013-04-15 10:46:00,49.8,20.7,29.44,North,-999,-999.0,-999.0,19,0.03,,,-99.99,0.0,Linux-Irox,2013-04-15 17:46:00,
2013-04-15 10:48:00,50.0,20.5,29.44,North,-999,-999.0,-999.0,18,0.03,,,-99.99,0.0,Linux-Irox,2013-04-15 17:48:00,
2013-04-15 10:58:00,52.5,21.6,29.43,North,-999,-999.0,-999.0,14,0.03,,,-99.99,0.0,Linux-Irox,2013-04-15 17:58:00,
2013-04-15 11:01:00,52.5,20.1,29.43,North,-999,-999.0,-999.0,10,0.03,,,-99.99,0.0,Linux-Irox,2013-04-15 18:01:00,
2013-04-15 11:08:00,53.4,21.0,29.43,North,-999,-999.0,-999.0,10,0.03,,,-99.99,0.0,Linux-Irox,2013-04-15 18:08:00,
2013-04-15 11:16:00,51.8,19.4,29.43,North,-999,-999.0,-999.0,10,0.03,,,-99.99,0.0,Linux-Irox,2013-04-15 18:16:00,
2013-04-15 11:18:00,51.8,19.4,29.42,North,-999,-999.0,-999.0,10,0.03,,,-99.99,0.0,Linux-Irox,2013-04-15 18:18:00,
2013-04-15 11:28:00,54.9,22.5,29.42,North,-999,-999.0,-999.0,10,0.03,,,-99.99,0.0,Linux-Irox,2013-04-15 18:28:00,
2013-04-15 11:31:00,55.0,22.6,29.42,North,-999,-999.0,-999.0,10,0.00,,,-99.99,0.0,Linux-Irox,2013-04-15 18:31:00,
2013-04-15 11:38:00,54.9,21.0,29.41,North,-999,-999.0,-999.0,6,0.00,,,-99.99,0.0,Linux-Irox,2013-04-15 18:38:00,
2013-04-15 11:46:00,57.0,22.8,29.41,North,-999,-999.0,-999.0,5,0.00,,,-99.99,0.0,Linux-Irox,2013-04-15 18:46:00,
2013-04-15 11:48:00,56.8,22.6,29.41,North,-999,-999.0,-999.0,5,0.00,,,-99.99,0.0,Linux-Irox,2013-04-15 18:48:00,
2013-04-15 11:58:00,59.5,25.3,29.41,North,-999,-999.0,-999.0,5,0.00,,,-99.99,0.0,Linux-Irox,2013-04-15 18:58:00,
2013-04-15 12:01:00,59.4,25.2,29.41,North,-999,-999.0,-999.0,5,0.00,,,-99.99,0.0,Linux-Irox,2013-04-15 19:01:00,
2013-04-15 12:08:00,59.2,25.0,29.41,North,-999,-999.0,-999.0,5,0.00,,,-99.99,0.0,Linux-Irox,2013-04-15 19:08:00,
2013-04-15 12:17:00,58.8,24.6,29.41,North,-999,-999.0,-999.0,5,0.00,,,-99.99,0.0,Linux-Irox,2013-04-15 19:17:00,
2013-04-15 12:18:00,58.8,24.6,29.41,North,-999,-999.0,-999.0,5,0.00,,,-99.99,0.0,Linux-Irox,2013-04-15 19:18:00,
2013-04-15 12:28:00,60.3,26.1,29.41,North,-999,-999.0,-999.0,5,0.00,,,-99.99,0.0,Linux-Irox,2013-04-15 19:28:00,
2013-04-15 12:31:00,60.8,26.6,29.41,North,-999,-999.0,-999.0,5,0.00,,,-99.99,0.0,Linux-Irox,2013-04-15 19:31:00,
2013-04-15 12:38:00,61.7,27.5,29.41,North,-999,-999.0,-999.0,5,0.00,,,-99.99,0.0,Linux-Irox,2013-04-15 19:38:00,
2013-04-15 12:47:00,61.0,26.8,29.41,North,-999,-999.0,-999.0,5,0.00,,,-99.99,0.0,Linux-Irox,2013-04-15 19:47:00,
2013-04-15 12:48:00,61.0,26.8,29.41,North,-999,-999.0,-999.0,5,0.00,,,-99.99,0.0,Linux-Irox,2013-04-15 19:48:00,
2013-04-15 12:58:00,59.4,25.2,29.41,North,-999,-999.0,-999.0,5,0.00,,,-99.99,0.0,Linux-Irox,2013-04-15 19:58:00,
2013-04-15 13:01:00,58.8,24.6,29.41,North,-999,-999.0,-999.0,5,0.00,,,-99.99,0.0,Linux-Irox,2013-04-15 20:01:00,
2013-04-15 13:08:00,59.9,25.7,29.41,North,-999,-999.0,-999.0,5,0.00,,,-99.99,0.0,Linux-Irox,2013-04-15 20:08:00,
2013-04-15 13:16:00,58.5,24.3,29.41,North,-999,-999.0,-999.0,5,0.00,,,-99.99,0.0,Linux-Irox,2013-04-15 20:16:00,
2013-04-15 13:18:00,58.5,24.3,29.41,North,-999,-999.0,-999.0,5,0.00,,,-99.99,0.0,Linux-Irox,2013-04-15 20:18:00,
2013-04-15 13:28:00,59.7,25.5,29.41,North,-999,-999.0,-999.0,5,0.00,,,-99.99,0.0,Linux-Irox,2013-04-15 20:28:00,
2013-04-15 13:31:00,60.4,26.2,29.41,North,-999,-999.0,-999.0,5,0.00,,,-99.99,0.0,Linux-Irox,2013-04-15 20:31:00,
2013-04-15 13:38:00,59.7,25.5,29.39,North,-999,-999.0,-999.0,5,0.00,,,-99.99,0.0,Linux-Irox,2013-04-15 20:38:00,
2013-04-15 13:46:00,57.9,23.7,29.39,North,-999,-999.0,-999.0,5,0.00,,,-99.99,0.0,Linux-Irox,2013-04-15 20:46:00,
2013-04-15 13:48:00,57.6,23.4,29.39,North,-999,-999.0,-999.0,5,0.00,,,-99.99,0.0,Linux-Irox,2013-04-15 20:48:00,
2013-04-15 13:58:00,57.0,22.8,29.40,North,-999,-999.0,-999.0,5,0.00,,,-99.99,0.0,Linux-Irox,2013-04-15 20:58:00,
2013-04-15 14:01:00,57.0,22.8,29.40,North,-999,-999.0,-999.0,5,0.00,,,-99.99,0.0,Linux-Irox,2013-04-15 21:01:00,
2013-04-15 14:08:00,56.8,22.6,29.40,North,-999,-999.0,-999.0,5,0.00,,,-99.99,0.0,Linux-Irox,2013-04-15 21:08:00,
2013-04-15 14:16:00,55.8,21.6,29.40,North,-999,-999.0,-999.0,5,0.00,,,-99.99,0.0,Linux-Irox,2013-04-15 21:16:00,
2013-04-15 14:18:00,55.8,21.6,29.40,North,-999,-999.0,-999.0,5,0.00,,,-99.99,0.0,Linux-Irox,2013-04-15 21:18:00,
2013-04-15 14:28:00,55.9,21.7,29.40,North,-999,-999.0,-999.0,5,0.00,,,-99.99,0.0,Linux-Irox,2013-04-15 21:28:00,
2013-04-15 14:31:00,56.8,22.6,29.40,North,-999,-999.0,-999.0,5,0.00,,,-99.99,0.0,Linux-Irox,2013-04-15 21:31:00,
2013-04-15 14:38:00,56.5,22.3,29.39,North,-999,-999.0,-999.0,5,0.00,,,-99.99,0.0,Linux-Irox,2013-04-15 21:38:00,
2013-04-15 14:46:00,54.7,20.5,29.39,North,-999,-999.0,-999.0,5,0.00,,,-99.99,0.0,Linux-Irox,2013-04-15 21:46:00,
2013-04-15 14:48:00,55.2,21.4,29.39,North,-999,-999.0,-999.0,6,0.00,,,-99.99,0.0,Linux-Irox,2013-04-15 21:48:00,
2013-04-15 14:58:00,54.7,20.8,29.38,North,-999,-999.0,-999.0,6,0.00,,,-99.99,0.0,Linux-Irox,2013-04-15 21:58:00,
2013-04-15 15:01:00,54.9,21.0,29.38,North,-999,-999.0,-999.0,6,0.00,,,-99.99,0.0,Linux-Irox,2013-04-15 22:01:00,
2013-04-15 15:08:00,55.2,21.4,29.38,North,-999,-999.0,-999.0,6,0.00,,,-99.99,0.0,Linux-Irox,2013-04-15 22:08:00,
2013-04-15 15:16:00,55.8,21.6,29.38,North,-999,-999.0,-999.0,5,0.00,,,-99.99,0.0,Linux-Irox,2013-04-15 22:16:00,
2013-04-15 15:18:00,55.8,21.6,29.38,North,-999,-999.0,-999.0,5,0.00,,,-99.99,0.0,Linux-Irox,2013-04-15 22:18:00,
2013-04-15 15:28:00,55.9,21.7,29.38,North,-999,-999.0,-999.0,5,0.00,,,-99.99,0.0,Linux-Irox,2013-04-15 22:28:00,
2013-04-15 15:31:00,55.8,21.6,29.38,North,-999,-999.0,-999.0,5,0.00,,,-99.99,0.0,Linux-Irox,2013-04-15 22:31:00,
2013-04-15 15:38:00,56.8,22.6,29.37,North,-999,-999.0,-999.0,5,0.00,,,-99.99,0.0,Linux-Irox,2013-04-15 22:38:00,
2013-04-15 15:46:00,55.9,21.7,29.37,North,-999,-999.0,-999.0,5,0.00,,,-99.99,0.0,Linux-Irox,2013-04-15 22:46:00,
2013-04-15 15:48:00,55.8,21.6,29.37,North,-999,-999.0,-999.0,5,0.00,,,-99.99,0.0,Linux-Irox,2013-04-15 22:48:00,
2013-04-15 15:58:00,55.4,21.2,29.36,North,-999,-999.0,-999.0,5,0.00,,,-99.99,0.0,Linux-Irox,2013-04-15 22:58:00,
2013-04-15 16:01:00,55.6,21.4,29.36,North,-999,-999.0,-999.0,5,0.00,,,-99.99,0.0,Linux-Irox,2013-04-15 23:01:00,
2013-04-15 16:08:00,54.9,20.7,29.36,North,-999,-999.0,-999.0,5,0.00,,,-99.99,0.0,Linux-Irox,2013-04-15 23:08:00,
2013-04-15 16:16:00,54.3,20.1,29.36,North,-999,-999.0,-999.0,5,0.00,,,-99.99,0.0,Linux-Irox,2013-04-15 23:16:00,
2013-04-15 16:18:00,54.3,20.1,29.36,North,-999,-999.0,-999.0,5,0.00,,,-99.99,0.0,Linux-Irox,2013-04-15 23:18:00,
2013-04-15 16:28:00,53.4,20.3,29.36,North,-999,-999.0,-999.0,8,0.00,,,-99.99,0.0,Linux-Irox,2013-04-15 23:28:00,
2013-04-15 16:31:00,53.1,19.9,29.36,North,-999,-999.0,-999.0,8,0.00,,,-99.99,0.0,Linux-Irox,2013-04-15 23:31:00,
2013-04-15 16:38:00,52.7,19.6,29.37,North,-999,-999.0,-999.0,8,0.00,,,-99.99,0.0,Linux-Irox,2013-04-15 23:38:00,
2013-04-15 16:46:00,52.0,18.9,29.37,North,-999,-999.0,-999.0,8,0.00,,,-99.99,0.0,Linux-Irox,2013-04-15 23:46:00,
2013-04-15 16:48:00,51.8,18.7,29.37,North,-999,-999.0,-999.0,8,0.00,,,-99.99,0.0,Linux-Irox,2013-04-15 23:48:00,
2013-04-15 16:58:00,50.9,18.1,29.38,North,-999,-999.0,-999.0,9,0.00,,,-99.99,0.0,Linux-Irox,2013-04-15 23:58:00,
2013-04-15 17:01:00,50.4,17.6,29.38,North,-999,-999.0,-999.0,9,0.00,,,-99.99,0.0,Linux-Irox,2013-04-16 00:01:00,
2013-04-15 17:08:00,49.8,17.4,29.38,North,-999,-999.0,-999.0,10,0.00,,,-99.99,0.0,Linux-Irox,2013-04-16 00:08:00,
2013-04-15 17:16:00,49.3,16.9,29.38,North,-999,-999.0,-999.0,10,0.00,,,-99.99,0.0,Linux-Irox,2013-04-16 00:16:00,
2013-04-15 17:18:00,49.3,16.9,29.38,North,-999,-999.0,-999.0,10,0.00,,,-99.99,0.0,Linux-Irox,2013-04-16 00:18:00,
2013-04-15 17:28:00,48.4,16.0,29.38,North,-999,-999.0,-999.0,10,0.00,,,-99.99,0.0,Linux-Irox,2013-04-16 00:28:00,
2013-04-15 17:31:00,48.2,15.8,29.38,North,-999,-999.0,-999.0,10,0.00,,,-99.99,0.0,Linux-Irox,2013-04-16 00:31:00,
2013-04-15 17:38:00,47.7,15.3,29.38,North,-999,-999.0,-999.0,10,0.00,,,-99.99,0.0,Linux-Irox,2013-04-16 00:38:00,
2013-04-15 17:46:00,47.5,15.1,29.38,North,-999,-999.0,-999.0,10,0.00,,,-99.99,0.0,Linux-Irox,2013-04-16 00:46:00,
2013-04-15 17:48:00,47.7,15.3,29.38,North,-999,-999.0,-999.0,10,0.00,,,-99.99,0.0,Linux-Irox,2013-04-16 00:48:00,
2013-04-15 17:58:00,47.7,15.3,29.38,North,-999,-999.0,-999.0,10,0.00,,,-99.99,0.0,Linux-Irox,2013-04-16 00:58:00,
2013-04-15 18:01:00,47.5,15.1,29.38,North,-999,-999.0,-999.0,10,0.00,,,-99.99,0.0,Linux-Irox,2013-04-16 01:01:00,
2013-04-15 18:08:00,47.3,14.9,29.38,North,-999,-999.0,-999.0,10,0.00,,,-99.99,0.0,Linux-Irox,2013-04-16 01:08:00,
2013-04-15 18:16:00,46.8,14.4,29.38,North,-999,-999.0,-999.0,10,0.00,,,-99.99,0.0,Linux-Irox,2013-04-16 01:16:00,
2013-04-15 18:18:00,46.8,14.4,29.38,North,-999,-999.0,-999.0,10,0.00,,,-99.99,0.0,Linux-Irox,2013-04-16 01:18:00,
2013-04-15 18:28:00,46.6,15.3,29.38,North,-999,-999.0,-999.0,13,0.00,,,-99.99,0.0,Linux-Irox,2013-04-16 01:28:00,
2013-04-15 18:31:00,46.6,15.3,29.38,North,-999,-999.0,-999.0,13,0.00,,,-99.99,0.0,Linux-Irox,2013-04-16 01:31:00,
2013-04-15 18:38:00,46.0,14.7,29.38,North,-999,-999.0,-999.0,13,0.00,,,-99.99,0.0,Linux-Irox,2013-04-16 01:38:00,
2013-04-15 18:46:00,46.4,15.1,29.38,North,-999,-999.0,-999.0,13,0.00,,,-99.99,0.0,Linux-Irox,2013-04-16 01:46:00,
2013-04-15 18:48:00,46.4,15.1,29.38,North,-999,-999.0,-999.0,13,0.00,,,-99.99,0.0,Linux-Irox,2013-04-16 01:48:00,
2013-04-15 18:58:00,46.8,15.4,29.36,North,-999,-999.0,-999.0,13,0.00,,,-99.99,0.0,Linux-Irox,2013-04-16 01:58:00,
2013-04-15 19:01:00,46.6,15.3,29.36,North,-999,-999.0,-999.0,13,0.00,,,-99.99,0.0,Linux-Irox,2013-04-16 02:01:00,
2013-04-15 19:08:00,46.4,15.1,29.36,North,-999,-999.0,-999.0,13,0.00,,,-99.99,0.0,Linux-Irox,2013-04-16 02:08:00,
2013-04-15 19:16:00,46.2,14.9,29.36,North,-999,-999.0,-999.0,13,0.00,,,-99.99,0.0,Linux-Irox,2013-04-16 02:16:00,
2013-04-15 19:18:00,46.2,14.9,29.36,North,-999,-999.0,-999.0,13,0.00,,,-99.99,0.0,Linux-Irox,2013-04-16 02:18:00,
2013-04-15 19:28:00,46.4,15.1,29.36,North,-999,-999.0,-999.0,13,0.00,,,-99.99,0.0,Linux-Irox,2013-04-16 02:28:00,
2013-04-15 19:31:00,46.4,15.1,29.36,North,-999,-999.0,-999.0,13,0.00,,,-99.99,0.0,Linux-Irox,2013-04-16 02:31:00,
2013-04-15 19:38:00,46.2,14.9,29.37,North,-999,-999.0,-999.0,13,0.00,,,-99.99,0.0,Linux-Irox,2013-04-16 02:38:00,
2013-04-15 19:46:00,45.5,14.2,29.37,North,-999,-999.0,-999.0,13,0.00,,,-99.99,0.0,Linux-Irox,2013-04-16 02:46:00,
2013-04-15 19:48:00,45.5,14.2,29.37,North,-999,-999.0,-999.0,13,0.00,,,-99.99,0.0,Linux-Irox,2013-04-16 02:48:00,
2013-04-15 19:58:00,45.1,13.8,29.39,North,-999,-999.0,-999.0,13,0.00,,,-99.99,0.0,Linux-Irox,2013-04-16 02:58:00,
2013-04-15 20:01:00,45.0,13.6,29.39,North,-999,-999.0,-999.0,13,0.00,,,-99.99,0.0,Linux-Irox,2013-04-16 03:01:00,
2013-04-15 20:08:00,44.4,13.1,29.39,North,-999,-999.0,-999.0,13,0.00,,,-99.99,0.0,Linux-Irox,2013-04-16 03:08:00,
2013-04-15 20:16:00,44.2,13.6,29.39,North,-999,-999.0,-999.0,15,0.00,,,-99.99,0.0,Linux-Irox,2013-04-16 03:16:00,
2013-04-15 20:18:00,44.2,13.6,29.39,North,-999,-999.0,-999.0,15,0.00,,,-99.99,0.0,Linux-Irox,2013-04-16 03:18:00,
2013-04-15 20:28:00,44.6,14.0,29.39,North,-999,-999.0,-999.0,15,0.00,,,-99.99,0.0,Linux-Irox,2013-04-16 03:28:00,
2013-04-15 20:38:00,44.8,14.2,29.41,North,-999,-999.0,-999.0,15,0.00,,,-99.99,0.0,Linux-Irox,2013-04-16 03:38:00,
2013-04-15 20:48:00,44.4,14.9,29.41,North,-999,-999.0,-999.0,18,0.00,,,-99.99,0.0,Linux-Irox,2013-04-16 03:48:00,
2013-04-15 20:58:00,43.5,15.1,29.42,North,-999,-999.0,-999.0,21,0.00,,,-99.99,0.0,Linux-Irox,2013-04-16 03:58:00,
2013-04-15 21:08:00,42.8,14.7,29.42,North,-999,-999.0,-999.0,22,0.00,,,-99.99,0.0,Linux-Irox,2013-04-16 04:08:00,
2013-04-15 21:18:00,42.3,13.8,29.43,North,-999,-999.0,-999.0,21,0.00,,,-99.99,0.0,Linux-Irox,2013-04-16 04:18:00,
2013-04-15 21:28:00,41.7,13.3,29.43,North,-999,-999.0,-999.0,21,0.00,,,-99.99,0.0,Linux-Irox,2013-04-16 04:28:00,
2013-04-15 21:38:00,41.2,12.7,29.42,North,-999,-999.0,-999.0,21,0.00,,,-99.99,0.0,Linux-Irox,2013-04-16 04:38:00,
2013-04-15 21:48:00,41.2,13.1,29.42,North,-999,-999.0,-999.0,22,0.00,,,-99.99,0.0,Linux-Irox,2013-04-16 04:48:00,
2013-04-15 21:58:00,41.0,13.3,29.45,North,-999,-999.0,-999.0,23,0.00,,,-99.99,0.0,Linux-Irox,2013-04-16 04:58:00,
2013-04-15 22:08:00,40.8,13.5,29.45,North,-999,-999.0,-999.0,24,0.00,,,-99.99,0.0,Linux-Irox,2013-04-16 05:08:00,
2013-04-15 22:18:00,40.8,13.8,29.44,North,-999,-999.0,-999.0,25,0.00,,,-99.99,0.0,Linux-Irox,2013-04-16 05:18:00,
2013-04-15 22:28:00,41.2,13.8,29.44,North,-999,-999.0,-999.0,24,0.00,,,-99.99,0.0,Linux-Irox,2013-04-16 05:28:00,
2013-04-15 22:38:00,41.4,15.1,29.45,North,-999,-999.0,-999.0,27,0.00,,,-99.99,0.0,Linux-Irox,2013-04-16 05:38:00,
2013-04-15 22:48:00,41.2,14.2,29.45,North,-999,-999.0,-999.0,25,0.00,,,-99.99,0.0,Linux-Irox,2013-04-16 05:48:00,
2013-04-15 22:58:00,40.8,13.8,29.45,North,-999,-999.0,-999.0,25,0.00,,,-99.99,0.0,Linux-Irox,2013-04-16 05:58:00,
2013-04-15 23:08:00,40.5,13.8,29.45,North,-999,-999.0,-999.0,26,0.00,,,-99.99,0.0,Linux-Irox,2013-04-16 06:08:00,
2013-04-15 23:18:00,40.3,13.6,29.46,North,-999,-999.0,-999.0,26,0.00,,,-99.99,0.0,Linux-Irox,2013-04-16 06:18:00,
2013-04-15 23:28:00,40.3,13.3,29.46,North,-999,-999.0,-999.0,25,0.00,,,-99.99,0.0,Linux-Irox,2013-04-16 06:28:00,
2013-04-15 23:38:00,40.3,13.3,29.45,North,-999,-999.0,-999.0,25,0.00,,,-99.99,0.0,Linux-Irox,2013-04-16 06:38:00,
2013-04-15 23:48:00,40.3,13.3,29.45,North,-999,-999.0,-999.0,25,0.00,,,-99.99,0.0,Linux-Irox,2013-04-16 06:48:00,
2013-04-15 23:58:00,40.3,13.3,29.46,North,-999,-999.0,-999.0,25,0.00,,,-99.99,0.0,Linux-Irox,2013-04-16 06:58:00,